sensor_id;sensor_type;location;lat;lon;timestamp;temperature;humidity
71436;SHT31;59251;51.326;12.370;2022-12-18T00:02:04;-7.56;97.64
71436;SHT31;59251;51.326;12.370;2022-12-18T00:04:29;-7.56;97.54
71436;SHT31;59251;51.326;12.370;2022-12-18T00:06:55;-7.38;97.80
71436;SHT31;59251;51.326;12.370;2022-12-18T00:09:21;-7.46;97.82
71436;SHT31;59251;51.326;12.370;2022-12-18T00:11:46;-7.57;97.67
71436;SHT31;59251;51.326;12.370;2022-12-18T00:14:13;-7.47;98.09
71436;SHT31;59251;51.326;12.370;2022-12-18T00:16:39;-7.51;97.92
71436;SHT31;59251;51.326;12.370;2022-12-18T00:19:05;-7.57;98.45
71436;SHT31;59251;51.326;12.370;2022-12-18T00:21:31;-7.64;98.65
71436;SHT31;59251;51.326;12.370;2022-12-18T00:23:58;-7.47;98.16
71436;SHT31;59251;51.326;12.370;2022-12-18T00:26:26;-7.61;98.35
71436;SHT31;59251;51.326;12.370;2022-12-18T00:28:53;-7.50;97.82
71436;SHT31;59251;51.326;12.370;2022-12-18T00:31:21;-7.40;98.27
71436;SHT31;59251;51.326;12.370;2022-12-18T00:33:47;-7.19;97.95
71436;SHT31;59251;51.326;12.370;2022-12-18T00:36:15;-7.02;97.97
71436;SHT31;59251;51.326;12.370;2022-12-18T00:38:41;-6.92;99.20
71436;SHT31;59251;51.326;12.370;2022-12-18T00:41:07;-7.09;98.34
71436;SHT31;59251;51.326;12.370;2022-12-18T00:43:33;-7.05;98.69
71436;SHT31;59251;51.326;12.370;2022-12-18T00:45:59;-6.98;99.49
71436;SHT31;59251;51.326;12.370;2022-12-18T00:48:24;-6.98;99.55
71436;SHT31;59251;51.326;12.370;2022-12-18T00:50:50;-6.91;99.85
71436;SHT31;59251;51.326;12.370;2022-12-18T00:53:16;-6.95;99.74
71436;SHT31;59251;51.326;12.370;2022-12-18T00:55:42;-6.80;99.90
71436;SHT31;59251;51.326;12.370;2022-12-18T00:58:09;-6.67;99.15
71436;SHT31;59251;51.326;12.370;2022-12-18T01:00:35;-6.77;99.19
71436;SHT31;59251;51.326;12.370;2022-12-18T01:03:01;-6.76;98.90
71436;SHT31;59251;51.326;12.370;2022-12-18T01:05:26;-6.74;98.51
71436;SHT31;59251;51.326;12.370;2022-12-18T01:07:52;-6.79;98.51
71436;SHT31;59251;51.326;12.370;2022-12-18T01:10:18;-6.87;98.59
71436;SHT31;59251;51.326;12.370;2022-12-18T01:12:43;-6.80;98.62
71436;SHT31;59251;51.326;12.370;2022-12-18T01:15:10;-6.88;98.63
71436;SHT31;59251;51.326;12.370;2022-12-18T01:17:36;-6.92;98.68
71436;SHT31;59251;51.326;12.370;2022-12-18T01:20:02;-6.91;99.05
71436;SHT31;59251;51.326;12.370;2022-12-18T01:22:28;-7.01;98.89
71436;SHT31;59251;51.326;12.370;2022-12-18T01:24:53;-7.09;99.02
71436;SHT31;59251;51.326;12.370;2022-12-18T01:27:19;-7.13;99.17
71436;SHT31;59251;51.326;12.370;2022-12-18T01:29:44;-7.05;99.26
71436;SHT31;59251;51.326;12.370;2022-12-18T01:32:10;-6.94;98.93
71436;SHT31;59251;51.326;12.370;2022-12-18T01:34:36;-6.94;98.44
71436;SHT31;59251;51.326;12.370;2022-12-18T01:37:03;-7.05;99.10
71436;SHT31;59251;51.326;12.370;2022-12-18T01:39:29;-7.02;99.32
71436;SHT31;59251;51.326;12.370;2022-12-18T01:41:54;-6.87;99.06
71436;SHT31;59251;51.326;12.370;2022-12-18T01:50:04;-6.97;99.07
71436;SHT31;59251;51.326;12.370;2022-12-18T01:52:31;-6.94;99.00
71436;SHT31;59251;51.326;12.370;2022-12-18T01:54:59;-6.87;99.24
71436;SHT31;59251;51.326;12.370;2022-12-18T01:57:26;-7.04;98.78
71436;SHT31;59251;51.326;12.370;2022-12-18T01:59:53;-6.95;98.99
71436;SHT31;59251;51.326;12.370;2022-12-18T02:02:21;-6.95;99.11
71436;SHT31;59251;51.326;12.370;2022-12-18T02:04:46;-6.91;98.82
71436;SHT31;59251;51.326;12.370;2022-12-18T02:13:07;-6.80;98.05
71436;SHT31;59251;51.326;12.370;2022-12-18T02:18:19;-7.04;98.10
71436;SHT31;59251;51.326;12.370;2022-12-18T02:20:58;-6.83;98.38
71436;SHT31;59251;51.326;12.370;2022-12-18T02:28:56;-7.04;98.41
71436;SHT31;59251;51.326;12.370;2022-12-18T02:31:28;-7.04;98.21
71436;SHT31;59251;51.326;12.370;2022-12-18T02:33:56;-7.00;98.11
71436;SHT31;59251;51.326;12.370;2022-12-18T02:36:23;-6.95;97.94
71436;SHT31;59251;51.326;12.370;2022-12-18T02:38:50;-7.01;97.76
71436;SHT31;59251;51.326;12.370;2022-12-18T02:41:17;-7.04;97.59
71436;SHT31;59251;51.326;12.370;2022-12-18T02:43:48;-7.08;97.49
71436;SHT31;59251;51.326;12.370;2022-12-18T02:46:44;-7.13;97.74
71436;SHT31;59251;51.326;12.370;2022-12-18T02:51:49;-7.16;97.60
71436;SHT31;59251;51.326;12.370;2022-12-18T02:56:51;-7.09;97.00
71436;SHT31;59251;51.326;12.370;2022-12-18T02:59:31;-7.23;97.83
71436;SHT31;59251;51.326;12.370;2022-12-18T03:02:23;-7.13;97.25
71436;SHT31;59251;51.326;12.370;2022-12-18T03:04:58;-7.13;97.19
71436;SHT31;59251;51.326;12.370;2022-12-18T03:08:18;-7.13;97.09
71436;SHT31;59251;51.326;12.370;2022-12-18T03:10:26;-7.00;96.83
71436;SHT31;59251;51.326;12.370;2022-12-18T03:13:02;-7.07;96.78
71436;SHT31;59251;51.326;12.370;2022-12-18T03:15:31;-7.08;96.81
71436;SHT31;59251;51.326;12.370;2022-12-18T03:18:05;-7.15;96.87
71436;SHT31;59251;51.326;12.370;2022-12-18T03:20:34;-7.15;96.90
71436;SHT31;59251;51.326;12.370;2022-12-18T03:23:12;-7.16;97.11
71436;SHT31;59251;51.326;12.370;2022-12-18T03:25:41;-7.08;96.95
71436;SHT31;59251;51.326;12.370;2022-12-18T03:28:10;-7.22;97.27
71436;SHT31;59251;51.326;12.370;2022-12-18T03:30:38;-7.26;97.34
71436;SHT31;59251;51.326;12.370;2022-12-18T03:33:10;-7.28;97.37
71436;SHT31;59251;51.326;12.370;2022-12-18T03:35:42;-7.29;97.42
71436;SHT31;59251;51.326;12.370;2022-12-18T03:38:09;-7.23;97.58
71436;SHT31;59251;51.326;12.370;2022-12-18T03:43:10;-7.13;96.94
71436;SHT31;59251;51.326;12.370;2022-12-18T03:45:44;-7.13;96.87
71436;SHT31;59251;51.326;12.370;2022-12-18T03:48:17;-7.13;96.63
71436;SHT31;59251;51.326;12.370;2022-12-18T03:50:55;-7.23;96.94
71436;SHT31;59251;51.326;12.370;2022-12-18T03:56:07;-7.21;96.86
71436;SHT31;59251;51.326;12.370;2022-12-18T03:58:35;-7.23;96.99
71436;SHT31;59251;51.326;12.370;2022-12-18T04:01:05;-7.16;96.68
71436;SHT31;59251;51.326;12.370;2022-12-18T04:03:32;-7.21;96.70
71436;SHT31;59251;51.326;12.370;2022-12-18T04:06:00;-7.22;96.73
71436;SHT31;59251;51.326;12.370;2022-12-18T04:08:26;-7.28;96.89
71436;SHT31;59251;51.326;12.370;2022-12-18T04:10:52;-7.25;96.95
71436;SHT31;59251;51.326;12.370;2022-12-18T04:13:27;-7.23;97.02
71436;SHT31;59251;51.326;12.370;2022-12-18T04:15:53;-7.21;96.92
71436;SHT31;59251;51.326;12.370;2022-12-18T04:18:18;-7.19;97.10
71436;SHT31;59251;51.326;12.370;2022-12-18T04:20:44;-7.36;97.18
71436;SHT31;59251;51.326;12.370;2022-12-18T04:23:09;-7.43;97.83
71436;SHT31;59251;51.326;12.370;2022-12-18T04:25:35;-7.39;97.78
71436;SHT31;59251;51.326;12.370;2022-12-18T04:28:00;-7.43;97.79
71436;SHT31;59251;51.326;12.370;2022-12-18T04:30:25;-7.36;97.86
71436;SHT31;59251;51.326;12.370;2022-12-18T04:32:51;-7.39;97.41
71436;SHT31;59251;51.326;12.370;2022-12-18T04:35:16;-7.53;97.71
71436;SHT31;59251;51.326;12.370;2022-12-18T04:37:42;-7.59;97.60
71436;SHT31;59251;51.326;12.370;2022-12-18T04:40:07;-7.59;98.24
71436;SHT31;59251;51.326;12.370;2022-12-18T04:42:33;-7.44;98.30
71436;SHT31;59251;51.326;12.370;2022-12-18T04:44:58;-7.47;98.23
71436;SHT31;59251;51.326;12.370;2022-12-18T04:47:24;-7.43;97.95
71436;SHT31;59251;51.326;12.370;2022-12-18T04:49:49;-7.47;97.71
71436;SHT31;59251;51.326;12.370;2022-12-18T04:52:15;-7.39;97.51
71436;SHT31;59251;51.326;12.370;2022-12-18T04:54:40;-7.38;97.47
71436;SHT31;59251;51.326;12.370;2022-12-18T04:57:05;-7.36;97.35
71436;SHT31;59251;51.326;12.370;2022-12-18T04:59:31;-7.30;97.03
71436;SHT31;59251;51.326;12.370;2022-12-18T05:01:56;-7.36;97.04
71436;SHT31;59251;51.326;12.370;2022-12-18T05:04:21;-7.28;96.86
71436;SHT31;59251;51.326;12.370;2022-12-18T05:06:47;-7.28;96.70
71436;SHT31;59251;51.326;12.370;2022-12-18T05:09:12;-7.29;96.64
71436;SHT31;59251;51.326;12.370;2022-12-18T05:11:38;-7.32;96.59
71436;SHT31;59251;51.326;12.370;2022-12-18T05:14:03;-7.23;96.51
71436;SHT31;59251;51.326;12.370;2022-12-18T05:16:29;-7.16;96.30
71436;SHT31;59251;51.326;12.370;2022-12-18T05:18:54;-7.11;95.80
71436;SHT31;59251;51.326;12.370;2022-12-18T05:21:19;-7.18;95.75
71436;SHT31;59251;51.326;12.370;2022-12-18T05:23:45;-7.21;95.61
71436;SHT31;59251;51.326;12.370;2022-12-18T05:26:15;-7.18;95.76
71436;SHT31;59251;51.326;12.370;2022-12-18T05:28:41;-7.22;95.99
71436;SHT31;59251;51.326;12.370;2022-12-18T05:31:06;-7.16;95.65
71436;SHT31;59251;51.326;12.370;2022-12-18T05:33:33;-7.18;95.54
71436;SHT31;59251;51.326;12.370;2022-12-18T05:36:01;-7.22;95.86
71436;SHT31;59251;51.326;12.370;2022-12-18T05:38:27;-7.35;96.13
71436;SHT31;59251;51.326;12.370;2022-12-18T05:40:54;-7.30;96.17
71436;SHT31;59251;51.326;12.370;2022-12-18T05:43:21;-7.35;96.19
71436;SHT31;59251;51.326;12.370;2022-12-18T05:45:47;-7.19;95.94
71436;SHT31;59251;51.326;12.370;2022-12-18T05:48:13;-7.23;96.17
71436;SHT31;59251;51.326;12.370;2022-12-18T05:50:40;-7.22;96.18
71436;SHT31;59251;51.326;12.370;2022-12-18T05:53:06;-7.12;96.15
71436;SHT31;59251;51.326;12.370;2022-12-18T05:55:36;-7.11;95.80
71436;SHT31;59251;51.326;12.370;2022-12-18T05:58:03;-7.08;95.43
71436;SHT31;59251;51.326;12.370;2022-12-18T06:00:29;-7.18;95.67
71436;SHT31;59251;51.326;12.370;2022-12-18T06:02:54;-7.08;95.52
71436;SHT31;59251;51.326;12.370;2022-12-18T06:05:20;-7.15;95.48
71436;SHT31;59251;51.326;12.370;2022-12-18T06:07:45;-7.12;95.67
71436;SHT31;59251;51.326;12.370;2022-12-18T06:10:11;-7.12;95.38
71436;SHT31;59251;51.326;12.370;2022-12-18T06:12:36;-7.04;95.45
71436;SHT31;59251;51.326;12.370;2022-12-18T06:15:02;-7.09;95.50
71436;SHT31;59251;51.326;12.370;2022-12-18T06:17:30;-7.07;95.54
71436;SHT31;59251;51.326;12.370;2022-12-18T06:19:55;-7.11;95.38
71436;SHT31;59251;51.326;12.370;2022-12-18T06:22:21;-7.11;95.53
71436;SHT31;59251;51.326;12.370;2022-12-18T06:24:46;-7.15;95.44
71436;SHT31;59251;51.326;12.370;2022-12-18T06:27:12;-7.18;95.57
71436;SHT31;59251;51.326;12.370;2022-12-18T06:29:37;-7.15;95.71
71436;SHT31;59251;51.326;12.370;2022-12-18T06:32:03;-7.18;95.78
71436;SHT31;59251;51.326;12.370;2022-12-18T06:34:28;-7.18;95.62
71436;SHT31;59251;51.326;12.370;2022-12-18T06:36:54;-7.12;95.33
71436;SHT31;59251;51.326;12.370;2022-12-18T06:39:20;-7.15;95.31
71436;SHT31;59251;51.326;12.370;2022-12-18T06:41:45;-7.22;95.43
71436;SHT31;59251;51.326;12.370;2022-12-18T06:44:11;-7.18;95.40
71436;SHT31;59251;51.326;12.370;2022-12-18T06:46:36;-7.22;95.59
71436;SHT31;59251;51.326;12.370;2022-12-18T06:49:03;-7.28;95.79
71436;SHT31;59251;51.326;12.370;2022-12-18T06:51:28;-7.23;95.91
71436;SHT31;59251;51.326;12.370;2022-12-18T06:53:54;-7.30;96.01
71436;SHT31;59251;51.326;12.370;2022-12-18T06:56:19;-7.38;96.33
71436;SHT31;59251;51.326;12.370;2022-12-18T06:58:45;-7.42;96.70
71436;SHT31;59251;51.326;12.370;2022-12-18T07:01:11;-7.47;96.77
71436;SHT31;59251;51.326;12.370;2022-12-18T07:03:38;-7.50;96.87
71436;SHT31;59251;51.326;12.370;2022-12-18T07:06:04;-7.51;96.87
71436;SHT31;59251;51.326;12.370;2022-12-18T07:08:30;-7.59;96.95
71436;SHT31;59251;51.326;12.370;2022-12-18T07:10:56;-7.53;97.03
71436;SHT31;59251;51.326;12.370;2022-12-18T07:13:22;-7.46;96.59
71436;SHT31;59251;51.326;12.370;2022-12-18T07:15:48;-7.42;96.43
71436;SHT31;59251;51.326;12.370;2022-12-18T07:18:13;-7.39;96.21
71436;SHT31;59251;51.326;12.370;2022-12-18T07:20:39;-7.38;96.32
71436;SHT31;59251;51.326;12.370;2022-12-18T07:23:05;-7.36;96.30
71436;SHT31;59251;51.326;12.370;2022-12-18T07:25:36;-7.43;96.31
71436;SHT31;59251;51.326;12.370;2022-12-18T07:28:02;-7.39;96.34
71436;SHT31;59251;51.326;12.370;2022-12-18T07:30:28;-7.38;96.30
71436;SHT31;59251;51.326;12.370;2022-12-18T07:32:53;-7.43;96.43
71436;SHT31;59251;51.326;12.370;2022-12-18T07:35:18;-7.30;96.03
71436;SHT31;59251;51.326;12.370;2022-12-18T07:37:44;-7.33;95.84
71436;SHT31;59251;51.326;12.370;2022-12-18T07:40:10;-7.36;95.93
71436;SHT31;59251;51.326;12.370;2022-12-18T07:42:36;-7.33;95.81
71436;SHT31;59251;51.326;12.370;2022-12-18T07:45:03;-7.38;95.85
71436;SHT31;59251;51.326;12.370;2022-12-18T07:47:28;-7.33;95.92
71436;SHT31;59251;51.326;12.370;2022-12-18T07:49:54;-7.35;95.85
71436;SHT31;59251;51.326;12.370;2022-12-18T07:52:20;-7.30;95.68
71436;SHT31;59251;51.326;12.370;2022-12-18T07:54:45;-7.30;95.71
71436;SHT31;59251;51.326;12.370;2022-12-18T07:57:13;-7.38;95.85
71436;SHT31;59251;51.326;12.370;2022-12-18T07:59:39;-7.33;95.63
71436;SHT31;59251;51.326;12.370;2022-12-18T08:02:04;-7.28;95.59
71436;SHT31;59251;51.326;12.370;2022-12-18T08:04:30;-7.28;95.69
71436;SHT31;59251;51.326;12.370;2022-12-18T08:06:55;-7.25;95.76
71436;SHT31;59251;51.326;12.370;2022-12-18T08:09:20;-7.22;95.48
71436;SHT31;59251;51.326;12.370;2022-12-18T08:11:46;-7.19;95.44
71436;SHT31;59251;51.326;12.370;2022-12-18T08:14:11;-7.09;95.31
71436;SHT31;59251;51.326;12.370;2022-12-18T08:16:37;-7.04;94.97
71436;SHT31;59251;51.326;12.370;2022-12-18T08:19:02;-7.01;94.93
71436;SHT31;59251;51.326;12.370;2022-12-18T08:21:29;-7.01;94.79
71436;SHT31;59251;51.326;12.370;2022-12-18T08:23:57;-6.94;94.71
71436;SHT31;59251;51.326;12.370;2022-12-18T08:26:24;-6.97;94.28
71436;SHT31;59251;51.326;12.370;2022-12-18T08:28:50;-6.92;94.39
71436;SHT31;59251;51.326;12.370;2022-12-18T08:31:16;-6.90;94.26
71436;SHT31;59251;51.326;12.370;2022-12-18T08:33:42;-6.83;93.97
71436;SHT31;59251;51.326;12.370;2022-12-18T08:36:08;-6.90;94.23
71436;SHT31;59251;51.326;12.370;2022-12-18T08:38:35;-6.85;94.25
71436;SHT31;59251;51.326;12.370;2022-12-18T08:41:01;-6.73;93.90
71436;SHT31;59251;51.326;12.370;2022-12-18T08:43:27;-6.32;92.71
71436;SHT31;59251;51.326;12.370;2022-12-18T08:46:11;-6.22;92.21
71436;SHT31;59251;51.326;12.370;2022-12-18T08:48:37;-6.18;92.00
71436;SHT31;59251;51.326;12.370;2022-12-18T08:51:02;-6.37;92.19
71436;SHT31;59251;51.326;12.370;2022-12-18T08:53:28;-6.44;92.61
71436;SHT31;59251;51.326;12.370;2022-12-18T08:55:54;-6.54;92.84
71436;SHT31;59251;51.326;12.370;2022-12-18T08:58:21;-6.50;92.85
71436;SHT31;59251;51.326;12.370;2022-12-18T09:00:46;-6.57;92.92
71436;SHT31;59251;51.326;12.370;2022-12-18T09:03:13;-6.50;92.93
71436;SHT31;59251;51.326;12.370;2022-12-18T09:05:39;-6.44;92.85
71436;SHT31;59251;51.326;12.370;2022-12-18T09:08:05;-6.46;92.81
71436;SHT31;59251;51.326;12.370;2022-12-18T09:10:31;-6.49;92.87
71436;SHT31;59251;51.326;12.370;2022-12-18T09:12:56;-6.42;92.81
71436;SHT31;59251;51.326;12.370;2022-12-18T09:15:22;-6.33;92.54
71436;SHT31;59251;51.326;12.370;2022-12-18T09:17:47;-6.28;92.37
71436;SHT31;59251;51.326;12.370;2022-12-18T09:20:15;-6.32;92.52
71436;SHT31;59251;51.326;12.370;2022-12-18T09:22:40;-6.29;92.65
71436;SHT31;59251;51.326;12.370;2022-12-18T09:25:06;-6.11;92.41
71436;SHT31;59251;51.326;12.370;2022-12-18T09:27:34;-6.15;92.32
71436;SHT31;59251;51.326;12.370;2022-12-18T09:30:00;-6.12;92.08
71436;SHT31;59251;51.326;12.370;2022-12-18T09:32:26;-6.06;92.31
71436;SHT31;59251;51.326;12.370;2022-12-18T09:34:51;-5.84;92.11
71436;SHT31;59251;51.326;12.370;2022-12-18T09:37:17;-5.87;91.83
71436;SHT31;59251;51.326;12.370;2022-12-18T09:39:42;-5.90;91.61
71436;SHT31;59251;51.326;12.370;2022-12-18T09:42:21;-5.37;90.63
71436;SHT31;59251;51.326;12.370;2022-12-18T09:44:52;-5.27;89.40
71436;SHT31;59251;51.326;12.370;2022-12-18T09:47:22;-5.26;89.01
71436;SHT31;59251;51.326;12.370;2022-12-18T09:49:51;-5.40;89.76
71436;SHT31;59251;51.326;12.370;2022-12-18T09:52:28;-5.44;89.79
71436;SHT31;59251;51.326;12.370;2022-12-18T09:55:00;-5.52;90.19
71436;SHT31;59251;51.326;12.370;2022-12-18T09:57:31;-5.43;90.17
71436;SHT31;59251;51.326;12.370;2022-12-18T10:00:23;-5.33;89.40
71436;SHT31;59251;51.326;12.370;2022-12-18T10:02:56;-5.06;89.09
71436;SHT31;59251;51.326;12.370;2022-12-18T10:10:53;-5.16;88.70
71436;SHT31;59251;51.326;12.370;2022-12-18T10:13:35;-5.09;88.45
71436;SHT31;59251;51.326;12.370;2022-12-18T10:18:52;-4.91;88.91
71436;SHT31;59251;51.326;12.370;2022-12-18T10:29:38;-4.78;86.16
71436;SHT31;59251;51.326;12.370;2022-12-18T10:32:04;-4.75;86.43
71436;SHT31;59251;51.326;12.370;2022-12-18T10:34:29;-4.68;86.72
71436;SHT31;59251;51.326;12.370;2022-12-18T10:36:55;-4.66;86.82
71436;SHT31;59251;51.326;12.370;2022-12-18T10:39:22;-4.53;87.27
71436;SHT31;59251;51.326;12.370;2022-12-18T10:41:48;-4.29;86.54
71436;SHT31;59251;51.326;12.370;2022-12-18T10:44:22;-4.12;86.81
71436;SHT31;59251;51.326;12.370;2022-12-18T10:46:54;-3.98;85.80
71436;SHT31;59251;51.326;12.370;2022-12-18T10:49:26;-4.01;86.01
71436;SHT31;59251;51.326;12.370;2022-12-18T10:52:13;-3.56;84.04
71436;SHT31;59251;51.326;12.370;2022-12-18T10:54:49;-3.66;84.22
71436;SHT31;59251;51.326;12.370;2022-12-18T10:57:28;-3.99;84.67
71436;SHT31;59251;51.326;12.370;2022-12-18T10:59:56;-4.32;85.97
71436;SHT31;59251;51.326;12.370;2022-12-18T11:02:36;-4.29;86.43
71436;SHT31;59251;51.326;12.370;2022-12-18T11:05:04;-4.42;86.40
71436;SHT31;59251;51.326;12.370;2022-12-18T11:07:49;-4.37;86.20
71436;SHT31;59251;51.326;12.370;2022-12-18T11:10:19;-4.19;86.10
71436;SHT31;59251;51.326;12.370;2022-12-18T11:12:44;-4.27;85.93
71436;SHT31;59251;51.326;12.370;2022-12-18T11:15:23;-4.30;86.41
71436;SHT31;59251;51.326;12.370;2022-12-18T11:17:51;-4.13;86.38
71436;SHT31;59251;51.326;12.370;2022-12-18T11:23:01;-4.20;86.60
71436;SHT31;59251;51.326;12.370;2022-12-18T11:25:27;-4.20;87.22
71436;SHT31;59251;51.326;12.370;2022-12-18T11:27:58;-3.97;87.13
71436;SHT31;59251;51.326;12.370;2022-12-18T11:30:35;-3.82;86.14
71436;SHT31;59251;51.326;12.370;2022-12-18T11:33:32;-4.01;85.18
71436;SHT31;59251;51.326;12.370;2022-12-18T11:35:59;-4.08;84.74
71436;SHT31;59251;51.326;12.370;2022-12-18T11:38:40;-4.09;85.10
71436;SHT31;59251;51.326;12.370;2022-12-18T11:41:33;-4.16;83.89
71436;SHT31;59251;51.326;12.370;2022-12-18T11:44:30;-3.98;84.30
71436;SHT31;59251;51.326;12.370;2022-12-18T11:47:15;-3.97;84.11
71436;SHT31;59251;51.326;12.370;2022-12-18T11:49:47;-3.97;83.94
71436;SHT31;59251;51.326;12.370;2022-12-18T11:52:38;-3.88;84.15
71436;SHT31;59251;51.326;12.370;2022-12-18T11:57:51;-3.67;82.93
71436;SHT31;59251;51.326;12.370;2022-12-18T12:00:19;-3.66;83.28
71436;SHT31;59251;51.326;12.370;2022-12-18T12:03:06;-3.47;83.39
71436;SHT31;59251;51.326;12.370;2022-12-18T12:08:52;-2.74;81.00
71436;SHT31;59251;51.326;12.370;2022-12-18T12:11:47;-3.36;81.75
71436;SHT31;59251;51.326;12.370;2022-12-18T12:17:14;-3.17;82.07
71436;SHT31;59251;51.326;12.370;2022-12-18T12:30:21;-3.17;82.26
71436;SHT31;59251;51.326;12.370;2022-12-18T12:38:37;-2.84;81.48
71436;SHT31;59251;51.326;12.370;2022-12-18T12:41:08;-3.02;81.73
71436;SHT31;59251;51.326;12.370;2022-12-18T12:43:56;-3.05;82.16
71436;SHT31;59251;51.326;12.370;2022-12-18T12:46:23;-2.95;82.65
71436;SHT31;59251;51.326;12.370;2022-12-18T12:48:56;-2.49;82.09
71436;SHT31;59251;51.326;12.370;2022-12-18T12:51:26;-2.70;81.39
71436;SHT31;59251;51.326;12.370;2022-12-18T12:53:54;-2.93;80.68
71436;SHT31;59251;51.326;12.370;2022-12-18T12:56:22;-2.44;80.31
71436;SHT31;59251;51.326;12.370;2022-12-18T13:01:41;-3.16;82.15
71436;SHT31;59251;51.326;12.370;2022-12-18T13:04:18;-3.24;82.67
71436;SHT31;59251;51.326;12.370;2022-12-18T13:12:36;-3.02;80.86
71436;SHT31;59251;51.326;12.370;2022-12-18T13:20:50;-3.36;82.43
71436;SHT31;59251;51.326;12.370;2022-12-18T13:25:48;-3.33;82.62
71436;SHT31;59251;51.326;12.370;2022-12-18T13:28:16;-3.23;82.24
71436;SHT31;59251;51.326;12.370;2022-12-18T13:30:50;-3.35;82.77
71436;SHT31;59251;51.326;12.370;2022-12-18T13:35:50;-3.30;83.03
71436;SHT31;59251;51.326;12.370;2022-12-18T13:41:23;-3.57;83.18
71436;SHT31;59251;51.326;12.370;2022-12-18T13:43:57;-3.66;83.42
71436;SHT31;59251;51.326;12.370;2022-12-18T13:46:48;-3.57;83.41
71436;SHT31;59251;51.326;12.370;2022-12-18T13:51:42;-3.56;83.33
71436;SHT31;59251;51.326;12.370;2022-12-18T13:54:32;-3.42;83.11
71436;SHT31;59251;51.326;12.370;2022-12-18T13:56:59;-3.44;83.08
71436;SHT31;59251;51.326;12.370;2022-12-18T13:59:35;-3.36;82.87
71436;SHT31;59251;51.326;12.370;2022-12-18T14:02:22;-3.32;82.79
71436;SHT31;59251;51.326;12.370;2022-12-18T14:04:49;-3.57;83.22
71436;SHT31;59251;51.326;12.370;2022-12-18T14:07:18;-3.39;83.32
71436;SHT31;59251;51.326;12.370;2022-12-18T14:09:49;-3.47;83.30
71436;SHT31;59251;51.326;12.370;2022-12-18T14:12:21;-3.49;83.69
71436;SHT31;59251;51.326;12.370;2022-12-18T14:17:47;-3.64;84.58
71436;SHT31;59251;51.326;12.370;2022-12-18T14:20:17;-3.80;85.35
71436;SHT31;59251;51.326;12.370;2022-12-18T14:22:47;-3.85;85.44
71436;SHT31;59251;51.326;12.370;2022-12-18T14:25:17;-3.81;85.65
71436;SHT31;59251;51.326;12.370;2022-12-18T14:35:31;-4.09;86.58
71436;SHT31;59251;51.326;12.370;2022-12-18T14:40:42;-4.19;87.22
71436;SHT31;59251;51.326;12.370;2022-12-18T14:43:11;-4.19;87.28
71436;SHT31;59251;51.326;12.370;2022-12-18T14:45:39;-4.26;87.33
71436;SHT31;59251;51.326;12.370;2022-12-18T14:48:39;-4.29;87.45
71436;SHT31;59251;51.326;12.370;2022-12-18T14:51:19;-4.33;87.71
71436;SHT31;59251;51.326;12.370;2022-12-18T14:53:53;-4.34;87.85
71436;SHT31;59251;51.326;12.370;2022-12-18T14:56:27;-4.40;87.92
71436;SHT31;59251;51.326;12.370;2022-12-18T15:01:59;-4.43;88.02
71436;SHT31;59251;51.326;12.370;2022-12-18T15:04:42;-4.46;88.07
71436;SHT31;59251;51.326;12.370;2022-12-18T15:07:20;-4.49;88.16
71436;SHT31;59251;51.326;12.370;2022-12-18T15:17:59;-4.57;88.16
71436;SHT31;59251;51.326;12.370;2022-12-18T15:20:25;-4.56;87.88
71436;SHT31;59251;51.326;12.370;2022-12-18T15:22:50;-4.56;88.02
71436;SHT31;59251;51.326;12.370;2022-12-18T15:25:34;-4.61;87.97
71436;SHT31;59251;51.326;12.370;2022-12-18T15:28:02;-4.54;87.96
71436;SHT31;59251;51.326;12.370;2022-12-18T15:30:27;-4.56;87.60
71436;SHT31;59251;51.326;12.370;2022-12-18T15:33:16;-4.54;87.55
71436;SHT31;59251;51.326;12.370;2022-12-18T15:35:42;-4.60;87.66
71436;SHT31;59251;51.326;12.370;2022-12-18T15:38:07;-4.60;87.68
71436;SHT31;59251;51.326;12.370;2022-12-18T15:40:33;-4.57;87.63
71436;SHT31;59251;51.326;12.370;2022-12-18T15:42:58;-4.63;87.46
71436;SHT31;59251;51.326;12.370;2022-12-18T15:45:42;-4.61;87.51
71436;SHT31;59251;51.326;12.370;2022-12-18T15:48:26;-4.61;87.54
71436;SHT31;59251;51.326;12.370;2022-12-18T15:50:53;-4.60;87.60
71436;SHT31;59251;51.326;12.370;2022-12-18T15:53:22;-4.63;87.71
71436;SHT31;59251;51.326;12.370;2022-12-18T15:55:47;-4.63;87.77
71436;SHT31;59251;51.326;12.370;2022-12-18T15:58:31;-4.63;87.70
71436;SHT31;59251;51.326;12.370;2022-12-18T16:00:58;-4.54;87.60
71436;SHT31;59251;51.326;12.370;2022-12-18T16:03:24;-4.60;87.60
71436;SHT31;59251;51.326;12.370;2022-12-18T16:05:50;-4.54;87.42
71436;SHT31;59251;51.326;12.370;2022-12-18T16:08:15;-4.53;87.45
71436;SHT31;59251;51.326;12.370;2022-12-18T16:10:40;-4.58;87.65
71436;SHT31;59251;51.326;12.370;2022-12-18T16:13:11;-4.50;87.48
71436;SHT31;59251;51.326;12.370;2022-12-18T16:15:36;-4.33;86.73
71436;SHT31;59251;51.326;12.370;2022-12-18T16:18:02;-4.33;86.25
71436;SHT31;59251;51.326;12.370;2022-12-18T16:20:28;-4.36;86.26
71436;SHT31;59251;51.326;12.370;2022-12-18T16:22:55;-4.37;86.29
71436;SHT31;59251;51.326;12.370;2022-12-18T16:25:23;-4.43;86.24
71436;SHT31;59251;51.326;12.370;2022-12-18T16:27:50;-4.53;86.50
71436;SHT31;59251;51.326;12.370;2022-12-18T16:30:18;-4.53;86.50
71436;SHT31;59251;51.326;12.370;2022-12-18T16:32:43;-4.56;86.51
71436;SHT31;59251;51.326;12.370;2022-12-18T16:35:10;-4.47;86.37
71436;SHT31;59251;51.326;12.370;2022-12-18T16:37:36;-4.50;86.13
71436;SHT31;59251;51.326;12.370;2022-12-18T16:40:02;-4.46;85.97
71436;SHT31;59251;51.326;12.370;2022-12-18T16:42:27;-4.53;85.86
71436;SHT31;59251;51.326;12.370;2022-12-18T16:44:53;-4.50;85.98
71436;SHT31;59251;51.326;12.370;2022-12-18T16:47:18;-4.52;86.10
71436;SHT31;59251;51.326;12.370;2022-12-18T16:49:44;-4.54;86.10
71436;SHT31;59251;51.326;12.370;2022-12-18T16:52:10;-4.53;86.13
71436;SHT31;59251;51.326;12.370;2022-12-18T16:54:36;-4.60;86.16
71436;SHT31;59251;51.326;12.370;2022-12-18T16:57:02;-4.60;86.13
71436;SHT31;59251;51.326;12.370;2022-12-18T16:59:27;-4.58;86.05
71436;SHT31;59251;51.326;12.370;2022-12-18T17:01:54;-4.66;86.03
71436;SHT31;59251;51.326;12.370;2022-12-18T17:04:20;-4.64;85.98
71436;SHT31;59251;51.326;12.370;2022-12-18T17:06:45;-4.60;85.95
71436;SHT31;59251;51.326;12.370;2022-12-18T17:09:17;-4.56;86.09
71436;SHT31;59251;51.326;12.370;2022-12-18T17:11:45;-4.52;85.75
71436;SHT31;59251;51.326;12.370;2022-12-18T17:14:16;-4.49;85.75
71436;SHT31;59251;51.326;12.370;2022-12-18T17:16:41;-4.47;85.63
71436;SHT31;59251;51.326;12.370;2022-12-18T17:19:07;-4.49;85.73
71436;SHT31;59251;51.326;12.370;2022-12-18T17:21:32;-4.43;85.80
71436;SHT31;59251;51.326;12.370;2022-12-18T17:23:59;-4.40;85.66
71436;SHT31;59251;51.326;12.370;2022-12-18T17:26:24;-4.43;85.60
71436;SHT31;59251;51.326;12.370;2022-12-18T17:28:50;-4.40;85.52
71436;SHT31;59251;51.326;12.370;2022-12-18T17:31:18;-4.36;85.62